EPWR/WRO METAR and TAF weather

Enter ICAO airport designator
Station Type Date Time Source
EPWR METAR 2020/07/11 22:00 UTC NOAA

EPWR 112200Z 12002KT 9999 MIFG NSC 11/11 Q1024


Station Type Date Time Source
EPWR Decoded METAR 2020/07/11 22:00 UTC NOAA

Wroclaw Ii, Poland (EPWR) 51-06N 016-53E 121M
Jul 11, 2020 - 06:00 PM EDT / 2020.07.11 2200 UTC
Wind: from the ESE (120 degrees) at 2 MPH (2 KT):0
Visibility: greater than 7 mile(s):0
Weather: shallow fog
Temperature: 51 F (11 C)
Dew Point: 51 F (11 C)
Relative Humidity: 100%
Pressure (altimeter): 30.24 in. Hg (1024 hPa)
ob: EPWR 112200Z 12002KT 9999 MIFG NSC 11/11 Q1024
cycle: 22

Station Type Date Time Source
EPWR TAF 2020/07/11 21:33 UTC NOAA

TAF TAF EPWR 112030Z 1121/1221 20005KT CAVOK
BECMG 1206/1209 33010KT PROB30
TEMPO 1211/1217 SHRA BKN040TCU
BECMG 1219/1221 VRB02KT

Example: see airport list